Tiempo atmosférico en la estación meteorológica de Navalmoral De La Mata, Cáceres (269 m.)



Fecha
DESCASC
Temp. máxima en grados centígrados (hora)
DESCASC
Temp. mínima en grados centígrados (hora)
DESCASC
Temp. media en grados centígrados
DESCASC
Racha de viento máxima en m/sg (hora)
DESCASC
Velocidad máxima media en intervalos de 10 minutos(hora)
DESCASC
Precipitaciones diarias en mm
DESCASC
Precipitaciones de 00:00 a 06:00 en mm
DESCASC
Precipitaciones de 06:00 a 12:00 en mm
DESCASC
Precipitaciones de 12:00 a 18:00 en mm
DESCASC
Precipitaciones de 18:00 a 24:00 en mm
DESCASC
13-10-2019 25.4 (16:50) 14.5 (08:40) 19.9 6.11 (15:20) 3.33 (05:00) 0 0 0 0 0
12-10-2019 30.8 (18:10) 18.4 (09:00) 24.6 9.72 (18:20) 5 (18:40) 0 0 0 0 0
11-10-2019 30 (16:10) 14.9 (04:40) 22.4 9.17 (12:30) 4.72 (11:20) 0 0 0 0 0
10-10-2019 30.3 (17:00) 10.8 (00:00) 20.5 8.89 (12:50) 5 (12:10) 0 0 0 0 0
09-10-2019 32.2 (17:30) 12.1 (00:00) 22.2 7.5 (18:20) 4.17 (18:20) 0 0 0 0 0
08-10-2019 34.2 (17:10) 12.6 (00:00) 23.4 6.11 (11:50) 3.33 (11:50) 0 0 0 0 0
07-10-2019 33.2 (17:50) 10.9 (00:00) 22.1 5.56 (16:20) 2.5 (16:20) 0 0 0 0 0
06-10-2019 31.6 (18:00) 10.3 (00:00) 21 6.67 (15:00) 3.06 (18:30) 0 0 0 0 0
05-10-2019 30.1 (17:10) 10.8 (00:00) 20.5 8.61 (18:50) 3.89 (17:10) 0 0 0 0 0
04-10-2019 30 (17:20) 8.9 (00:00) 19.4 7.78 (17:20) 4.17 (17:00) 0 0 0 0 0
03-10-2019 29.8 (18:00) 8.7 (00:00) 19.2 7.22 (18:00) 4.17 (18:10) 0 0 0 0 0
02-10-2019 28.1 (17:50) 9.4 (00:00) 18.8 7.5 (00:10) 4.17 (03:10) 0 0 0 0 0
01-10-2019 29.2 (14:40) 12.2 (00:00) 20.7 17.22 (16:20) 6.67 (15:10) 0 0 0 0 0
30-09-2019 32.7 (16:00) 8.4 (00:00) 20.6 6.11 (13:00) 2.5 (16:20) 0 0 0 0 0
29-09-2019 32.4 (17:20) 10 (00:00) 21.2 8.61 (15:40) 3.89 (15:40) 0 0 0 0 0
28-09-2019 32.1 (17:20) 9.6 (00:00) 20.8 5.28 (03:10) 2.5 (02:50) 0 0 0 0 0
27-09-2019 31.7 (16:50) 11.3 (00:00) 21.5 9.17 (16:50) 5.28 (16:40) 0 0 0 0 0
26-09-2019 30.8 (17:40) 12.3 (00:00) 21.5 6.11 (18:40) 3.33 (18:50) 0 0 0 0 0
25-09-2019 28 (18:10) 12.1 (00:00) 20.1 11.94 (02:40) 6.67 (02:30) 0 0 0 0 0
24-09-2019 28 (16:30) 11.3 (00:00) 19.7 12.5 (16:50) 5.83 (12:30) 0 0 0 0 0
23-09-2019 26.9 (17:30) 11.1 (00:00) 19 6.39 (17:00) 2.78 (00:10) 0 0 0 0 0
22-09-2019 24 (17:30) 14.3 (00:00) 19.2 11.67 (18:10) 6.39 (14:10) 5.6 5.6 0 0 0
21-09-2019 19.7 (00:00) 16.9 (00:00) 18.3 5.83 (18:20) 3.33 (11:00) 9.6 0 1.2 6.2 2.2
20-09-2019 30.3 (17:10) 16.7 (00:00) 23.5 15 (18:50) 7.5 (18:50) 2.6 0 0 0 2.6
19-09-2019 32.7 (17:00) 16.2 (00:00) 24.5 5.28 (14:50) 2.22 (14:50) 0 0 0 0 0
18-09-2019 31.2 (18:10) 14.8 (00:00) 23 5.83 (00:10) 3.33 (00:10) 0 0 0 0 0
17-09-2019 31.2 (14:10) 17.6 (00:00) 24.4 11.39 (19:20) 5.83 (19:20) 12.8 0 0 0 12.8
16-09-2019 29.4 (17:50) 18.6 (00:00) 24 7.78 (11:00) 3.89 (11:00) 0 0 0 0 0
15-09-2019 29.4 (18:20) 17.2 (00:00) 23.3 7.5 (03:00) 4.44 (03:00) 8.2 8 0.2 0 0

Gráficas

Temp. máximas Temp. mínimas Temp. medias Precipitaciones Rachas de viento máximas Velocidades máximas media en intervalos de 10 minutos

Datos horarios

Fecha y hora oficial Temperatura (ºC) Velocidad del viento (km/h) Dirección del viento Racha (km/h) Dirección de racha Precipitación (mm) Presión (hPa) Tendencia (hPa) Humedad (%)
2019-10-14 23:00:00 12.7 16 Oeste 34 Oeste 0 986.1 1.5 69
2019-10-14 22:00:00 12.7 9 Oeste 18 Oeste 0 986 2.3 78
2019-10-14 21:00:00 13.2 13 Oeste 23 Oeste 0 985.2 2.1 83
2019-10-14 20:00:00 13.8 13 Oeste 23 Oeste 0 984.6 2.1 82
2019-10-14 19:00:00 14.7 14 Oeste 30 Sudoeste 0 983.7 1 82
2019-10-14 18:00:00 14.8 17 Oeste 32 Sudoeste 0 983.1 1.8 85
2019-10-14 17:00:00 13.7 13 Sudoeste 27 Oeste 2.2 982.5 0.5 90
2019-10-14 16:00:00 14 13 Oeste 55 Oeste 4 982.7 0 89
2019-10-14 15:00:00 18.3 19 Sudoeste 37 Sudoeste 0 981.3 -1.4 53
2019-10-14 14:00:00 18.9 19 Sudoeste 36 Sudoeste 0 982 -0.4 49
2019-10-14 13:00:00 18.8 13 Oeste 39 Oeste 0 982.7 0.5 52
2019-10-14 12:00:00 18.3 20 Oeste 38 Oeste 0 982.7 2.1 54
2019-10-14 11:00:00 17 19 Oeste 35 Oeste 0 982.4 2.6 70
2019-10-14 10:00:00 15.6 10 Oeste 32 Oeste 0 982.2 2.2 84
2019-10-14 09:00:00 14.7 21 Oeste 52 Sudoeste 0.8 980.6 1.9 84
2019-10-14 08:00:00 17.6 6 Oeste 31 Oeste 0.2 979.8 2 76
2019-10-14 07:00:00 17.9 13 Oeste 28 Oeste 0 980 2.1 67
2019-10-14 06:00:00 18 7 Oeste 24 Oeste 0 978.7 0.5 62
2019-10-14 05:00:00 16.9 8 Oeste 16 Oeste 0 977.8 -0.9 65
2019-10-14 04:00:00 15.9 0 Calma 8 Este 0 977.9 -1.5 67
2019-10-14 03:00:00 17 5 Este 8 Este 0 978.2 -1.7 62
2019-10-14 02:00:00 16.7 4 Este 13 Nordeste 0 978.7 -1.6 63
2019-10-14 01:00:00 15.8 9 Norte 17 Sudoeste 0 979.4 -1.1 67
2019-10-14 00:00:00 16.6 6 Este 9 Este 0 979.9 -0.7 63
2019-10-13 23:00:00 17.7 5 Sudeste 10 Sudeste 0 980.3 -0.3 59
2019-10-13 22:00:00 18.1 2 Sudeste 8 Sudeste 0 980.5 -0.3 58
2019-10-13 21:00:00 19.9 5 Este 10 Este 0 980.6 -0.7 51
2019-10-13 20:00:00 22.1 6 Este 18 Este 0 980.6 -1.2 45
2019-10-13 19:00:00 24.2 9 Nordeste 21 Nordeste 0 980.8 -1.5 39
2019-10-13 18:00:00 25.1 10 Nordeste 21 Nordeste 0 981.3 -1.8 37
2019-10-13 17:00:00 25.4 9 Nordeste 20 Este 0 981.8 -2.2 36
2019-10-13 16:00:00 24.5 9 Norte 22 Nordeste 0 982.3 -2.4 39
2019-10-13 15:00:00 24.2 7 Nordeste 19 Este 0 983.1 -2.1 41
2019-10-13 14:00:00 22.6 7 Nordeste 17 Nordeste 0 984 -1.1 46
2019-10-13 13:00:00 21.9 5 Nordeste 18 Nordeste 0 984.7 -0.1 49
2019-10-13 12:00:00 22 5 Norte 15 Noroeste 0 985.2 0.8 50
2019-10-13 11:00:00 20 4 Noroeste 14 Noroeste 0 985.1 1.4 58
2019-10-13 10:00:00 17.3 0 Calma 7 Sudoeste 0 984.8 1.2 73
2019-10-13 09:00:00 15.3 5 Sudoeste 9 Sudoeste 0 984.4 1.3 80
2019-10-13 08:00:00 14.9 3 Sudoeste 8 Oeste 0 983.7 0.9 82
2019-10-13 07:00:00 15.1 6 Oeste 10 Oeste 0 983.6 0.7 80
2019-10-13 06:00:00 16.5 9 Oeste 18 Oeste 0 983.1 0.2 75
2019-10-13 05:00:00 17.5 12 Oeste 19 Oeste 0 982.8 0 71
2019-10-13 04:00:00 17 9 Sudoeste 15 Oeste 0 982.9 0.3 73
2019-10-13 03:00:00 18.4 8 Oeste 17 Oeste 0 982.9 0.3 70
2019-10-13 02:00:00 19.9 5 Oeste 16 Oeste 0 982.8 0.7 65
2019-10-13 01:00:00 21.2 8 Sudoeste 16 Sudoeste 0 982.6 1.3 52
2019-10-13 00:00:00 21.9 9 Sudoeste 18 Oeste 0 982.6 1.7 47
2019-10-12 23:00:00 22.6 10 Sudoeste 14 Sudoeste 0 982.1 1.6 38
2019-10-12 22:00:00 23.7 6 Sudoeste 16 Sudoeste 0 981.3 1 33
2019-10-12 21:00:00 23.8 8 Sudoeste 12 Sudoeste 0 980.9 0.4 33
2019-10-12 20:00:00 26.4 6 Oeste 21 Sur 0 980.5 -0.5 28
2019-10-12 19:00:00 29.1 13 Sur 35 Sur 0 980.3 -1.2 22
2019-10-12 18:00:00 30.7 8 Sudoeste 29 Sudoeste 0 980.5 -1.7 21
2019-10-12 17:00:00 30 17 Sudoeste 31 Sudoeste 0 981 -2.2 20
2019-10-12 16:00:00 29.7 6 Sudeste 13 Este 0 981.5 -2.3 24
2019-10-12 15:00:00 29.4 8 Este 22 Sudeste 0 982.2 -2.3 25
2019-10-12 14:00:00 28.7 8 Sudeste 17 Nordeste 0 983.2 -1.3 27
2019-10-12 13:00:00 27.5 11 Este 19 Nordeste 0 983.8 -0.4 30
2019-10-12 12:00:00 25.3 8 Este 15 Este 0 984.5 1 38
2019-10-12 11:00:00 23.4 6 Nordeste 13 Nordeste 0 984.5 1.8 48
2019-10-12 10:00:00 21 0 Calma 7 Oeste 0 984.2 1.1 62
2019-10-12 09:00:00 18.4 4 Noroeste 13 Norte 0 983.5 -0.3 71
2019-10-12 08:00:00 19.1 8 Este 14 Este 0 982.7 -0.8 66
2019-10-12 07:00:00 19.2 9 Sudeste 17 Sudeste 0 983.1 -0.7 65
2019-10-12 06:00:00 18.7 5 Sudeste 9 Este 0 983.8 -0.3 70
2019-10-12 05:00:00 19.4 4 Norte 7 Norte 0 983.5 -0.9 68
2019-10-12 04:00:00 19.6 3 Sudoeste 10 Sudeste 0 983.8 -0.4 69
2019-10-12 03:00:00 19.9 5 Sudeste 10 Oeste 0 984.1 -0.1 68
2019-10-12 02:00:00 20.2 3 Noroeste 10 Noroeste 0 984.4 0.3 67
2019-10-12 01:00:00 20.5 4 Nordeste 10 Nordeste 0 984.2 -0.1 66
2019-10-12 00:00:00 21.1 7 Este 10 Este 0 984.2 0.3 64
2019-10-11 23:00:00 21.9 5 Este 9 Este 0 984.1 0.6 57
2019-10-11 22:00:00 23 0 Calma 4 Sudeste 0 984.3 0.6 53
2019-10-11 21:00:00 24.6 2 Sur 8 Sudeste 0 983.9 0.1 48
2019-10-11 20:00:00 26.1 6 Este 8 Este 0 983.5 -0.8 41
2019-10-11 19:00:00 28 3 Sudeste 7 Sudeste 0 983.7 -1.1 36
2019-10-11 18:00:00 28.6 5 Sudeste 13 Este 0 983.8 -1.6 34
2019-10-11 17:00:00 29.1 7 Sudeste 20 Este 0 984.3 -2.2 33
2019-10-11 16:00:00 29.7 9 Sudeste 22 Sudeste 0 984.8 -2.8 31
2019-10-11 15:00:00 28.8 8 Este 26 Este 0 985.4 -3 35
2019-10-11 14:00:00 27.5 12 Este 26 Sudeste 0 986.5 -2.2 41
2019-10-11 13:00:00 26.4 14 Sudeste 33 Sudeste 0 987.6 -0.6 45
2019-10-11 12:00:00 24 12 Este 28 Este 0 988.4 0.7 54
2019-10-11 11:00:00 22.2 13 Este 29 Este 0 988.7 1.5 61
2019-10-11 10:00:00 20.8 13 Este 23 Este 0 988.2 1.6 65
2019-10-11 09:00:00 17.8 7 Este 15 Nordeste 0 987.7 1.5 72
2019-10-11 08:00:00 15.9 9 Nordeste 15 Nordeste 0 987.2 1.2 74
2019-10-11 07:00:00 15.1 6 Este 11 Este 0 986.6 0.4 70
2019-10-11 06:00:00 15.1 5 Nordeste 13 Nordeste 0 986.2 0 70
2019-10-11 05:00:00 15.1 10 Nordeste 14 Nordeste 0 986 -0.1 68
2019-10-11 04:00:00 15.4 2 Este 9 Este 0 986.2 -0.1 65
2019-10-11 03:00:00 15.7 4 Este 8 Este 0 986.2 0.1 65
2019-10-11 02:00:00 16.4 5 Este 9 Este 0 986.1 0.3 63
2019-10-11 01:00:00 17 7 Nordeste 10 Nordeste 0 986.3 0.9 63
2019-10-11 00:00:00 17.3 8 Nordeste 10 Nordeste 0 986.1 1 61
2019-10-10 23:00:00 18.7 6 Este 9 Sudeste 0 985.8 0.8 57
2019-10-10 22:00:00 19.8 5 Este 11 Nordeste 0 985.4 0.5 55
2019-10-10 21:00:00 21.3 7 Nordeste 12 Nordeste 0 985.1 0.3 47
2019-10-10 20:00:00 25.5 3 Nordeste 5 Nordeste 0 985 0 34
2019-10-10 19:00:00 29 4 Nordeste 11 Sur 0 984.9 -0.6 26
2019-10-10 18:00:00 29.8 5 Nordeste 13 Sudeste 0 984.8 -1.3 25
2019-10-10 17:00:00 30.2 7 Sudeste 17 Sudeste 0 985 -2 25
2019-10-10 16:00:00 29.6 9 Este 30 Sur 0 985.5 -2 27
2019-10-10 15:00:00 28.6 11 Este 31 Este 0 986.1 -1.6 33
2019-10-10 14:00:00 27.5 13 Este 29 Sudeste 0 987 -1.1 37
2019-10-10 13:00:00 26 16 Este 32 Este 0 987.5 -0.3 43
2019-10-10 12:00:00 24.1 12 Este 28 Nordeste 0 987.7 0.7 49
2019-10-10 11:00:00 21.3 10 Este 23 Sudeste 0 988.1 1.7 50
2019-10-10 10:00:00 17.9 9 Este 19 Este 0 987.8 1.8 56
2019-10-10 09:00:00 14.1 8 Nordeste 14 Este 0 987 1.3 66
2019-10-10 08:00:00 13.6 9 Nordeste 15 Nordeste 0 986.4 0.8 65
2019-10-10 07:00:00 14 9 Nordeste 18 Este 0 986 0.4 62
2019-10-10 06:00:00 11.1 6 Este 9 Este 0 985.7 0.4 75
2019-10-10 05:00:00 12 4 Este 12 Nordeste 0 985.6 0.6 74
2019-10-10 04:00:00 11 9 Nordeste 12 Nordeste 0 985.6 0.7 71
2019-10-10 03:00:00 11.5 7 Este 9 Este 0 985.3 0.8 64
2019-10-10 02:00:00 13.2 6 Este 9 Sudeste 0 985 0.9 58
2019-10-10 01:00:00 14.1 4 Este 10 Nordeste 0 984.9 1.3 55
2019-10-10 00:00:00 15.4 6 Nordeste 11 Este 0 984.5 1.2 49
2019-10-09 23:00:00 17.3 4 Oeste 10 Sudoeste 0 984.1 1.1 43
2019-10-09 22:00:00 20.3 4 Oeste 13 Sudoeste 0 983.6 1 32
2019-10-09 21:00:00 24 10 Sudoeste 21 Sudoeste 0 983.3 0.8 26
2019-10-09 20:00:00 26.1 9 Sudoeste 22 Oeste 0 983 0.2 21
2019-10-09 19:00:00 30.2 12 Oeste 27 Oeste 0 982.6 -0.7 14
2019-10-09 18:00:00 31.9 8 Oeste 25 Oeste 0 982.5 -1.3 13
2019-10-09 17:00:00 32.1 9 Oeste 23 Noroeste 0 982.8 -1.6 19
2019-10-09 16:00:00 30.8 9 Oeste 20 Oeste 0 983.3 -1.7 27
2019-10-09 15:00:00 29.9 5 Oeste 17 Oeste 0 983.8 -1.5 27
2019-10-09 14:00:00 28.6 5 Sudoeste 15 Oeste 0 984.4 -0.7 31
2019-10-09 13:00:00 26.1 4 Oeste 13 Sur 0 985 0.2 35
2019-10-09 12:00:00 23.5 4 Oeste 10 Oeste 0 985.3 0.9 41
2019-10-09 11:00:00 20.9 2 Sudoeste 6 Sudeste 0 985.1 1.1 51
2019-10-09 10:00:00 17.1 2 Este 9 Sudeste 0 984.8 1.1 66
2019-10-09 09:00:00 12.9 5 Nordeste 9 Norte 0 984.4 0.9 81
2019-10-09 08:00:00 12.5 5 Sur 9 Norte 0 984 0.6 83
2019-10-09 07:00:00 13.2 4 Nordeste 8 Sudeste 0 983.7 0.3 78
2019-10-09 06:00:00 13.7 4 Sur 8 Sudeste 0 983.5 0 76
2019-10-09 05:00:00 14.2 3 Este 12 Nordeste 0 983.4 -0.1 75
2019-10-09 04:00:00 14.7 3 Norte 7 Este 0 983.4 -0.3 71
2019-10-09 03:00:00 15.7 0 Calma 8 Sudeste 0 983.5 -0.3 67
2019-10-09 02:00:00 16.5 5 Este 8 Nordeste 0 983.5 0 64
2019-10-09 01:00:00 17.8 4 Norte 8 Nordeste 0 983.7 0.4 58
2019-10-09 00:00:00 18.6 4 Sudoeste 8 Oeste 0 983.8 0.4 56
2019-10-08 23:00:00 20.3 4 Oeste 12 Sudoeste 0 983.5 0.5 48
2019-10-08 22:00:00 21.4 4 Sudoeste 7 Oeste 0 983.3 0.4 44
2019-10-08 21:00:00 23.2 4 Noroeste 9 Noroeste 0 983.4 0.3 39
2019-10-08 20:00:00 28.2 3 Sudoeste 12 Noroeste 0 983 -0.4 27
2019-10-08 19:00:00 32.4 4 Noroeste 17 Noroeste 0 982.9 -1.1 19
2019-10-08 18:00:00 33.4 6 Noroeste 18 Norte 0 983.1 -1.6 16
2019-10-08 17:00:00 33.8 7 Oeste 16 Oeste 0 983.4 -2.1 16
2019-10-08 16:00:00 33.3 5 Norte 14 Oeste 0 984 -2.4 16
2019-10-08 15:00:00 32.4 4 Noroeste 15 Este 0 984.7 -2.3 19
2019-10-08 14:00:00 30.7 8 Este 17 Este 0 985.5 -2 21
2019-10-08 13:00:00 28.6 9 Este 20 Este 0 986.4 -0.9 24
2019-10-08 12:00:00 26.6 11 Este 22 Este 0 987 0 28
2019-10-08 11:00:00 23.4 10 Este 17 Este 0 987.5 1 35
2019-10-08 10:00:00 18.8 5 Este 11 Nordeste 0 987.3 1.1 54
2019-10-08 09:00:00 14.2 6 Nordeste 14 Este 0 987 1.1 72
2019-10-08 08:00:00 13.4 8 Este 11 Este 0 986.5 0.7 72
2019-10-08 07:00:00 13.3 6 Este 12 Nordeste 0 986.2 0.3 74
2019-10-08 06:00:00 12.8 6 Nordeste 9 Este 0 985.9 0 74
2019-10-08 05:00:00 13.9 6 Sudeste 10 Sudeste 0 985.8 0 69
2019-10-08 04:00:00 13.6 4 Sur 10 Este 0 985.9 -0.1 75
2019-10-08 03:00:00 14.9 4 Sudeste 12 Este 0 985.9 -0.1 70
2019-10-08 02:00:00 15.5 3 Este 8 Sudeste 0 985.8 -0.2 68
2019-10-08 01:00:00 16.8 3 Nordeste 12 Nordeste 0 986 0.5 61
2019-10-08 00:00:00 18.4 6 Nordeste 12 Nordeste 0 986 0.9 55
2019-10-07 23:00:00 19.4 3 Nordeste 8 Sudoeste 0 986 1.1 49
2019-10-07 22:00:00 20.6 8 Sur 12 Sur 0 985.5 0.7 44
2019-10-07 21:00:00 23.3 5 Oeste 11 Noroeste 0 985.1 0.2 35
2019-10-07 20:00:00 27.8 0 Calma 7 Oeste 0 984.9 -0.3 26
2019-10-07 19:00:00 32.2 3 Noroeste 12 Noroeste 0 984.8 -0.7 16
2019-10-07 18:00:00 33.2 4 Noroeste 15 Oeste 0 984.9 -1.1 15
2019-10-07 17:00:00 33 5 Noroeste 20 Oeste 0 985.2 -1.6 15
2019-10-07 16:00:00 32.4 5 Oeste 14 Noroeste 0 985.5 -2.1 15
2019-10-07 15:00:00 30.8 4 Sudoeste 13 Oeste 0 986 -1.9 18
2019-10-07 14:00:00 29.1 4 Noroeste 12 Norte 0 986.8 -1.3 23
2019-10-07 13:00:00 27 5 Nordeste 13 Este 0 987.6 -0.1 28
2019-10-07 12:00:00 24.9 3 Norte 11 Este 0 987.9 0.7 32
2019-10-07 11:00:00 22.2 4 Sur 9 Sudeste 0 988.1 1.3 41
2019-10-07 10:00:00 17.5 5 Este 9 Este 0 987.7 1.2 58
2019-10-07 09:00:00 12.5 3 Este 6 Sudoeste 0 987.2 1 80
2019-10-07 08:00:00 11.8 4 Nordeste 9 Este 0 986.8 0.9 79
2019-10-07 07:00:00 10.9 4 Sur 8 Sudeste 0 986.5 0.6 83
2019-10-07 06:00:00 12.2 4 Norte 11 Sudeste 0 986.2 -0.5 77
2019-10-07 05:00:00 12.3 6 Sur 8 Sur 0 985.9 -0.8 78
2019-10-07 04:00:00 12.9 6 Este 9 Sudeste 0 985.9 -1.1 77
2019-10-07 03:00:00 14.1 5 Sudeste 9 Sudeste 0 986.7 -0.2 74
2019-10-07 02:00:00 15.1 5 Sudeste 8 Nordeste 0 986.7 -0.2 71
2019-10-07 01:00:00 15.8 4 Este 12 Nordeste 0 987 0.7 66
2019-10-07 00:00:00 16.9 4 Sudoeste 11 Este 0 986.9 1.2 57
2019-10-06 23:00:00 18.2 7 Sudoeste 10 Sudeste 0 986.9 1.4 51
2019-10-06 22:00:00 20.9 5 Sur 12 Oeste 0 986.3 1 41
2019-10-06 21:00:00 23.7 6 Oeste 12 Noroeste 0 985.7 0.3 34
2019-10-06 20:00:00 27.1 7 Oeste 19 Oeste 0 985.5 -0.3 26
2019-10-06 19:00:00 30.3 9 Oeste 20 Noroeste 0 985.3 -1.1 19
2019-10-06 18:00:00 31.5 8 Sudoeste 19 Sudoeste 0 985.4 -1.6 19
2019-10-06 17:00:00 30.9 7 Oeste 19 Oeste 0 985.8 -1.9 20
2019-10-06 16:00:00 29.3 5 Oeste 19 Noroeste 0 986.4 -1.9 25
2019-10-06 15:00:00 28.3 8 Noroeste 24 Oeste 0 987 -1.5 27
2019-10-06 14:00:00 26.7 4 Noroeste 15 Oeste 0 987.7 -0.8 30
2019-10-06 13:00:00 25.1 5 Noroeste 14 Noroeste 0 988.3 0.1 34
2019-10-06 12:00:00 22.2 4 Noroeste 11 Oeste 0 988.5 1 43
2019-10-06 11:00:00 18.9 3 Noroeste 8 Este 0 988.5 1.9 56
2019-10-06 10:00:00 14.9 3 Este 8 Sudeste 0 988.2 2.1 78
2019-10-06 09:00:00 11 3 Sudeste 7 Norte 0 987.5 1.7 89
2019-10-06 08:00:00 10.8 5 Norte 7 Norte 0 986.6 1.1 90
2019-10-06 07:00:00 10.5 4 Norte 8 Noroeste 0 986.1 0.8 89
2019-10-06 06:00:00 11.1 3 Sudoeste 5 Oeste 0 985.8 0.2 88
2019-10-06 05:00:00 12.2 3 Nordeste 6 Nordeste 0 985.5 0.2 86
2019-10-06 04:00:00 12.7 0 Calma 6 Norte 0 985.3 -0.1 82
2019-10-06 03:00:00 14 4 Noroeste 10 Noroeste 0 985.6 0.5 73
2019-10-06 02:00:00 15.5 2 Noroeste 10 Oeste 0 985.3 0.6 69
2019-10-06 01:00:00 16.3 8 Oeste 12 Oeste 0 985.4 1.2 65
2019-10-06 00:00:00 18.9 5 Oeste 13 Oeste 0 985.1 1 54
2019-10-05 23:00:00 21 9 Sudoeste 20 Sudoeste 0 984.7 0.9 48
2019-10-05 22:00:00 21.3 10 Sudoeste 19 Sudoeste 0 984.2 0.7 43
2019-10-05 21:00:00 23.5 10 Oeste 17 Sudoeste 0 984.1 0.8 40
2019-10-05 20:00:00 25.3 9 Oeste 23 Oeste 0 983.8 0.5 33
2019-10-05 19:00:00 28.6 10 Oeste 31 Oeste 0 983.5 -0.1 26
2019-10-05 18:00:00 29.9 12 Oeste 28 Sudoeste 0 983.3 -0.9 29
2019-10-05 17:00:00 30 11 Oeste 30 Noroeste 0 983.3 -1.7 27
2019-10-05 16:00:00 29.5 9 Oeste 25 Oeste 0 983.6 -1.9 30
2019-10-05 15:00:00 28.4 8 Noroeste 22 Oeste 0 984.2 -1.5 34
2019-10-05 14:00:00 26.6 10 Oeste 26 Noroeste 0 985 -0.8 40
2019-10-05 13:00:00 25.6 4 Oeste 14 Oeste 0 985.5 -0.1 42
2019-10-05 12:00:00 23.3 3 Noroeste 12 Norte 0 985.7 0.6 50
2019-10-05 11:00:00 20.6 4 Noroeste 10 Norte 0 985.8 1.5 56
2019-10-05 10:00:00 16.8 2 Nordeste 5 Nordeste 0 985.6 1.8 68
2019-10-05 09:00:00 11.4 2 Sudeste 7 Nordeste 0 985.1 1.4 87
2019-10-05 08:00:00 11.4 4 Este 9 Este 0 984.3 0.7 85
2019-10-05 07:00:00 11.2 4 Este 8 Sudeste 0 983.8 0 85
2019-10-05 06:00:00 11.8 5 Este 9 Este 0 983.7 -0.2 84
2019-10-05 05:00:00 12.1 6 Este 8 Este 0 983.6 -0.2 82
2019-10-05 04:00:00 12.4 4 Nordeste 6 Este 0 983.8 0.1 79
2019-10-05 03:00:00 13.9 2 Sudeste 6 Norte 0 983.9 0.2 74
2019-10-05 02:00:00 14.5 5 Norte 10 Sudoeste 0 983.8 0.2 71
2019-10-05 01:00:00 16.6 6 Sudoeste 9 Sudoeste 0 983.7 0.2 64
2019-10-05 00:00:00 17.4 8 Sudoeste 11 Sudoeste 0 983.7 0.2 60
2019-10-04 23:00:00 18.3 5 Oeste 11 Sudoeste 0 983.6 0.3 54
2019-10-04 22:00:00 19.9 8 Sudoeste 10 Sudoeste 0 983.5 0.6 48
2019-10-04 21:00:00 22.2 5 Oeste 10 Oeste 0 983.5 0.5 40
2019-10-04 20:00:00 25.4 5 Oeste 13 Oeste 0 983.3 0 32
2019-10-04 19:00:00 29 6 Oeste 22 Sudoeste 0 982.9 -1.1 25
2019-10-04 18:00:00 29.7 10 Oeste 28 Oeste 0 983 -1.8 23
2019-10-04 17:00:00 29.5 15 Sudoeste 27 Sudoeste 0 983.3 -2.4 23
2019-10-04 16:00:00 29.3 12 Oeste 25 Oeste 0 984 -2.3 25
2019-10-04 15:00:00 28.7 6 Noroeste 20 Noroeste 0 984.8 -2.1 26
2019-10-04 14:00:00 27.5 7 Sudoeste 16 Oeste 0 985.7 -1.4 27
2019-10-04 13:00:00 25.6 5 Sudoeste 14 Oeste 0 986.3 -0.7 30
2019-10-04 12:00:00 23.7 3 Oeste 9 Oeste 0 986.9 0.4 36
2019-10-04 11:00:00 19.9 2 Oeste 6 Oeste 0 987.1 0.8 49
2019-10-04 10:00:00 16.2 2 Sur 12 Sudeste 0 987 0.9 61
2019-10-04 09:00:00 11.3 5 Este 7 Sudeste 0 986.5 0.6 84
2019-10-04 08:00:00 9.4 5 Norte 8 Norte 0 986.3 0.7 88
2019-10-04 07:00:00 9.8 2 Este 4 Oeste 0 986.1 0.6 87
2019-10-04 06:00:00 10.1 3 Oeste 6 Oeste 0 985.9 0.2 86
2019-10-04 05:00:00 11.4 4 Nordeste 9 Nordeste 0 985.6 -0.2 82
2019-10-04 04:00:00 12.2 4 Este 8 Este 0 985.5 -0.2 79
2019-10-04 03:00:00 13.2 5 Este 8 Nordeste 0 985.7 -0.1 75
2019-10-04 02:00:00 14.7 5 Este 8 Este 0 985.8 0.1 67
2019-10-04 01:00:00 16.4 5 Nordeste 10 Nordeste 0 985.7 0.4 59
2019-10-04 00:00:00 16.6 6 Norte 11 Oeste 0 985.8 0.6 52
2019-10-03 23:00:00 19.3 3 Sudoeste 14 Oeste 0 985.7 0.7 45
2019-10-03 22:00:00 20.9 11 Oeste 14 Oeste 0 985.3 0.5 38
2019-10-03 21:00:00 23.8 8 Oeste 15 Oeste 0 985.2 0.3 29
2019-10-03 20:00:00 25.8 8 Oeste 23 Oeste 0 985 -0.4 26
2019-10-03 19:00:00 28.8 12 Oeste 25 Oeste 0 984.8 -1.4 22
2019-10-03 18:00:00 29.8 15 Sudoeste 26 Sudoeste 0 984.9 -1.8 21
2019-10-03 17:00:00 29.3 9 Oeste 21 Oeste 0 985.4 -2.2 20
2019-10-03 16:00:00 28.7 8 Oeste 21 Sudoeste 0 986.2 -1.7 23
2019-10-03 15:00:00 26.9 7 Oeste 21 Sudoeste 0 986.7 -1.8 26
2019-10-03 14:00:00 25.4 6 Noroeste 17 Noroeste 0 987.6 -0.8 28
2019-10-03 13:00:00 24.5 3 Oeste 17 Sudeste 0 987.9 -0.2 30
2019-10-03 12:00:00 22.4 4 Sudeste 12 Este 0 988.5 0.7 36
2019-10-03 11:00:00 19.9 2 Sur 7 Sur 0 988.4 0.9 46
2019-10-03 10:00:00 15 2 Sur 5 Sudoeste 0 988.1 0.8 65
2019-10-03 09:00:00 10.1 3 Norte 9 Norte 0 987.8 0.9 82
2019-10-03 08:00:00 9.3 3 Noroeste 7 Sur 0 987.5 0.8 82
2019-10-03 07:00:00 9.6 2 Oeste 7 Oeste 0 987.3 0.6 81
2019-10-03 06:00:00 11.1 3 Sur 11 Sudeste 0 986.9 0.1 75
2019-10-03 05:00:00 11.8 4 Este 8 Nordeste 0 986.7 -0.2 72
2019-10-03 04:00:00 12.1 3 Sudeste 6 Este 0 986.7 0 73
2019-10-03 03:00:00 12.6 0 Calma 11 Nordeste 0 986.8 0.3 68
2019-10-03 02:00:00 13.3 6 Nordeste 10 Nordeste 0 986.9 0.6 66
2019-10-03 01:00:00 14.3 6 Este 13 Nordeste 0 986.7 1 64
2019-10-03 00:00:00 15.6 11 Nordeste 14 Nordeste 0 986.5 1.1 56
2019-10-02 23:00:00 15.5 4 Sudeste 11 Este 0 986.3 1.2 57
2019-10-02 22:00:00 17.7 3 Sur 8 Sur 0 985.7 1.1 49
2019-10-02 21:00:00 19.7 3 Sudeste 8 Oeste 0 985.4 0.7 44
2019-10-02 20:00:00 23.5 5 Sudoeste 8 Nordeste 0 985.1 0.3 33
2019-10-02 19:00:00 26.6 5 Nordeste 11 Norte 0 984.6 -0.5 25
2019-10-02 18:00:00 27.6 4 Norte 13 Nordeste 0 984.7 -0.9 23
2019-10-02 17:00:00 27.4 6 Norte 14 Nordeste 0 984.8 -1.3 25
2019-10-02 16:00:00 26.9 4 Noroeste 18 Noroeste 0 985.1 -1.4 26
2019-10-02 15:00:00 25.9 4 Noroeste 18 Noroeste 0 985.6 -1.2 27
2019-10-02 14:00:00 25 6 Sur 18 Sur 0 986.1 -0.5 30
2019-10-02 13:00:00 23.5 7 Sur 14 Sur 0 986.5 0.5 32
2019-10-02 12:00:00 22.1 5 Sudeste 14 Sur 0 986.8 1.5 35
2019-10-02 11:00:00 19.4 4 Sudeste 12 Este 0 986.6 2 48
2019-10-02 10:00:00 15.2 6 Este 12 Nordeste 0 986 1.6 68
2019-10-02 09:00:00 10.6 5 Este 14 Nordeste 0 985.3 1 86
2019-10-02 08:00:00 9.7 4 Sudeste 10 Nordeste 0 984.6 0.6 86
2019-10-02 07:00:00 11.1 3 Noroeste 13 Sudoeste 0 984.4 0.5 81
2019-10-02 06:00:00 13.8 5 Oeste 16 Sudoeste 0 984.3 0 68
2019-10-02 05:00:00 15.5 8 Sudoeste 16 Sudoeste 0 984 -0.1 64
2019-10-02 04:00:00 16.9 11 Sudoeste 23 Sudoeste 0 983.9 -0.4 60
2019-10-02 03:00:00 17.5 14 Sudoeste 23 Sudoeste 0 984.3 0 59
2019-10-02 02:00:00 17.1 6 Sudoeste 21 Oeste 0 984.1 0.2 57
2019-10-02 01:00:00 18.6 11 Sudoeste 27 Oeste 0 984.3 0.6 52
2019-10-02 00:00:00 21.6 10 Oeste 32 Oeste 0 984.3 1.1 42
2019-10-01 23:00:00 23 12 Oeste 36 Oeste 0 983.9 1.1 38
2019-10-01 22:00:00 22.9 11 Oeste 33 Oeste 0 983.7 1.1 39
2019-10-01 21:00:00 23.2 10 Oeste 29 Oeste 0 983.2 1.2 38
2019-10-01 20:00:00 24.5 10 Oeste 44 Noroeste 0 982.8 0.8 34
2019-10-01 19:00:00 26.7 18 Oeste 44 Noroeste 0 982.6 0.6 29
2019-10-01 18:00:00 27.6 19 Oeste 44 Oeste 0 982 0.3 32
2019-10-01 17:00:00 28.3 18 Oeste 62 Noroeste 0 982 -0.4 30
2019-10-01 16:00:00 28.8 19 Oeste 53 Oeste 0 982 -0.9 31
2019-10-01 15:00:00 28.6 23 Oeste 52 Oeste 0 981.7 -1.4 31
2019-10-01 14:00:00 27.9 8 Norte 21 Noroeste 0 982.4 -1.1 33
2019-10-01 13:00:00 25.8 5 Noroeste 26 Noroeste 0 982.9 -0.2 43
2019-10-01 12:00:00 24.8 19 Oeste 35 Oeste 0 983.1 0.4 43
2019-10-01 11:00:00 21.1 19 Sudoeste 35 Sudoeste 0 983.5 1.2 58
2019-10-01 10:00:00 19.7 13 Sudoeste 26 Sudoeste 0 983.1 1.2 69
2019-10-01 09:00:00 14.1 5 Oeste 10 Oeste 0 982.7 0.7 79
2019-10-01 08:00:00 15.6 6 Noroeste 15 Sudoeste 0 982.3 0.3 69
2019-10-01 07:00:00 14.8 11 Sudoeste 16 Sudoeste 0 981.9 -0.1 71
2019-10-01 06:00:00 13 3 Sudeste 8 Sudoeste 0 982 -0.7 77
2019-10-01 05:00:00 13.7 0 Calma 6 Nordeste 0 982 -0.8 77
2019-10-01 04:00:00 13.8 3 Nordeste 5 Norte 0 982 -0.7 77
2019-10-01 03:00:00 13.6 0 Calma 6 Noroeste 0 982.7 0 73
2019-10-01 02:00:00 13.8 2 Noroeste 11 Oeste 0 982.8 0.2 73
2019-10-01 01:00:00 14.4 2 Noroeste 10 Oeste 0 982.7 0.3 67
2019-10-01 00:00:00 15.3 7 Sudoeste 9 Oeste 0 982.7 0.5 61
2019-09-30 23:00:00 17 0 Calma 7 Oeste 0 982.6 0.5 54
2019-09-30 22:00:00 19.4 3 Sur 9 Noroeste 0 982.4 0.3 46
2019-09-30 21:00:00 21.9 4 Sudoeste 11 Oeste 0 982.2 -0.2 38
2019-09-30 20:00:00 27.1 2 Este 11 Noroeste 0 982.1 -1 24
2019-09-30 19:00:00 31.1 5 Norte 14 Noroeste 0 982.1 -1.4 15
2019-09-30 18:00:00 31.1 6 Noroeste 19 Noroeste 0 982.4 -1.9 15
2019-09-30 17:00:00 32.3 7 Noroeste 19 Oeste 0 983.1 -2.1 13
2019-09-30 16:00:00 32.7 5 Oeste 15 Oeste 0 983.5 -2.5 14
2019-09-30 15:00:00 31.1 4 Noroeste 12 Norte 0 984.3 -2.3 16
2019-09-30 14:00:00 29.9 3 Sudoeste 10 Nordeste 0 985.2 -1.5 18
2019-09-30 13:00:00 27.4 5 Nordeste 22 Nordeste 0 986 -0.6 23
2019-09-30 12:00:00 24.5 4 Este 10 Este 0 986.6 0.5 28
2019-09-30 11:00:00 20.5 3 Norte 8 Nordeste 0 986.7 0.8 41
2019-09-30 10:00:00 15.7 2 Este 9 Este 0 986.6 1.1 57
2019-09-30 09:00:00 10.5 4 Este 6 Este 0 986.1 0.8 79
2019-09-30 08:00:00 8.7 3 Este 6 Este 0 985.9 0.6 80
2019-09-30 07:00:00 9.3 2 Este 8 Este 0 985.5 0.2 78
2019-09-30 06:00:00 10.6 5 Este 6 Este 0 985.3 -0.3 70
2019-09-30 05:00:00 10.9 0 Calma 13 Este 0 985.3 -0.2 73
2019-09-30 04:00:00 12.6 8 Sudeste 13 Este 0 985.3 -0.1 64
2019-09-30 03:00:00 12.2 6 Este 12 Sudeste 0 985.6 0.2 65
2019-09-30 02:00:00 12.9 6 Sudeste 11 Sudeste 0 985.5 0.2 64
2019-09-30 01:00:00 13.7 4 Este 8 Nordeste 0 985.4 0.2 58
2019-09-30 00:00:00 15.5 2 Oeste 9 Noroeste 0 985.4 0.8 44
2019-09-29 23:00:00 16.9 3 Noroeste 9 Sudoeste 0 985.3 0.8 40
2019-09-29 22:00:00 18.3 3 Sudoeste 10 Oeste 0 985.2 0.7 40
2019-09-29 21:00:00 21.5 8 Oeste 9 Oeste 0 984.6 -0.1 34
2019-09-29 20:00:00 27 4 Oeste 12 Noroeste 0 984.5 -0.5 23
2019-09-29 19:00:00 31.3 5 Oeste 18 Noroeste 0 984.5 -1 15
2019-09-29 18:00:00 32.1 8 Noroeste 23 Oeste 0 984.7 -1.5 12
2019-09-29 17:00:00 32.3 10 Oeste 24 Noroeste 0 985 -2.2 12
2019-09-29 16:00:00 31.4 14 Oeste 31 Oeste 0 985.5 -1.9 12
2019-09-29 15:00:00 30.7 10 Oeste 22 Oeste 0 986.2 -1.5 16
2019-09-29 14:00:00 28.9 6 Oeste 19 Oeste 0 987.2 -0.5 22
2019-09-29 13:00:00 26.9 4 Noroeste 10 Nordeste 0 987.4 0.2 26
2019-09-29 12:00:00 24.3 4 Nordeste 9 Sudeste 0 987.7 1.1 32
2019-09-29 11:00:00 21.2 4 Sudeste 9 Este 0 987.7 1.3 41
2019-09-29 10:00:00 15.8 6 Este 10 Este 0 987.2 1.2 64
2019-09-29 09:00:00 11.4 4 Este 8 Este 0 986.6 0.9 87
2019-09-29 08:00:00 10.2 3 Sudeste 6 Sur 0 986.4 0.7 87
2019-09-29 07:00:00 10.6 3 Este 5 Este 0 986 0.1 87
2019-09-29 06:00:00 11.2 2 Norte 4 Nordeste 0 985.7 -0.6 83
2019-09-29 05:00:00 11.7 3 Sudoeste 7 Sudoeste 0 985.7 -0.4 83
2019-09-29 04:00:00 12.3 0 Calma 8 Este 0 985.9 -0.1 79
2019-09-29 03:00:00 13.4 6 Este 8 Este 0 986.3 0.3 75
2019-09-29 02:00:00 13.6 3 Sudeste 5 Sudeste 0 986.1 0.2 74
2019-09-29 01:00:00 14.4 2 Sudeste 7 Nordeste 0 986 0.3 69
2019-09-29 00:00:00 15.5 4 Nordeste 8 Oeste 0 986 0.6 61
2019-09-28 23:00:00 17.3 5 Sudoeste 8 Sur 0 985.9 0.6 56
2019-09-28 22:00:00 18.5 5 Sur 8 Sur 0 985.7 0.3 51
2019-09-28 21:00:00 21.8 4 Norte 8 Norte 0 985.4 -0.1 34
2019-09-28 20:00:00 26.6 4 Norte 10 Norte 0 985.3 -0.4 23
2019-09-28 19:00:00 30.1 6 Norte 15 Norte 0 985.4 -0.9 15
2019-09-28 18:00:00 31.7 7 Noroeste 15 Noroeste 0 985.5 -1.4 12
2019-09-28 17:00:00 31.7 6 Noroeste 15 Noroeste 0 985.7 -2.1 14
2019-09-28 16:00:00 31.1 4 Noroeste 12 Norte 0 986.3 -2.1 16
2019-09-28 15:00:00 30.9 3 Sudeste 13 Sudeste 0 986.9 -2.1 22
2019-09-28 14:00:00 29.3 4 Sur 17 Este 0 987.8 -1.3 23
2019-09-28 13:00:00 27.2 7 Sudeste 18 Sudeste 0 988.4 -0.6 28
2019-09-28 12:00:00 24 7 Este 14 Este 0 989 0.6 35
2019-09-28 11:00:00 21.2 2 Nordeste 6 Nordeste 0 989.1 1.3 44
2019-09-28 10:00:00 16.5 3 Este 8 Este 0 989 1.5 61
2019-09-28 09:00:00 11.3 4 Este 6 Sudeste 0 988.4 1 81
2019-09-28 08:00:00 9.8 3 Sudeste 7 Sudeste 0 987.8 0.7 84
2019-09-28 07:00:00 9.7 0 Calma 8 Sudeste 0 987.5 0.5 83
2019-09-28 06:00:00 10.6 2 Este 7 Este 0 987.4 0.4 80
2019-09-28 05:00:00 12 4 Este 10 Este 0 987.1 0.1 74
2019-09-28 04:00:00 12.6 5 Este 19 Este 0 987 0.2 72
2019-09-28 03:00:00 13.6 5 Este 14 Este 0 987 0.3 69
2019-09-28 02:00:00 14 4 Este 9 Este 0 987 0.7 67
2019-09-28 01:00:00 15.3 0 Calma 8 Oeste 0 986.8 0.9 60
2019-09-28 00:00:00 17.5 3 Noroeste 11 Sudoeste 0 986.7 1.2 51
2019-09-27 23:00:00 20.1 7 Sudoeste 12 Oeste 0 986.3 1 39
2019-09-27 22:00:00 22 8 Sudoeste 19 Oeste 0 985.9 0.6 32
2019-09-27 21:00:00 24.6 11 Oeste 19 Sudoeste 0 985.5 0.2 25
2019-09-27 20:00:00 26.9 12 Oeste 27 Sudoeste 0 985.3 0 20
2019-09-27 19:00:00 29.9 13 Oeste 31 Oeste 0 985.3 -0.3 18
2019-09-27 18:00:00 31 15 Oeste 33 Oeste 0 985.3 -1 16
2019-09-27 17:00:00 31.4 17 Oeste 33 Oeste 0 985.3 -1.9 14
2019-09-27 16:00:00 31.2 12 Oeste 32 Sudoeste 0 985.6 -2 15
2019-09-27 15:00:00 30 5 Sudoeste 18 Sudoeste 0 986.3 -1.8 24
2019-09-27 14:00:00 28.3 6 Oeste 15 Noroeste 0 987.2 -1 29
2019-09-27 13:00:00 25.9 4 Noroeste 14 Oeste 0 987.6 -0.2 35
2019-09-27 12:00:00 24.3 3 Oeste 11 Oeste 0 988.1 0.7 43
2019-09-27 11:00:00 21.3 4 Oeste 9 Noroeste 0 988.2 1.3 50
2019-09-27 10:00:00 17.4 3 Sudeste 7 Sudeste 0 987.8 1 74
2019-09-27 09:00:00 12.5 2 Sudeste 6 Sudeste 0 987.4 0.7 89
2019-09-27 08:00:00 11.6 3 Este 8 Nordeste 0 986.9 0.3 89
2019-09-27 07:00:00 12.2 2 Norte 6 Sudoeste 0 986.8 0.4 90
2019-09-27 06:00:00 12.2 3 Noroeste 9 Noroeste 0 986.7 0.1 88
2019-09-27 05:00:00 12.4 0 Calma 5 Este 0 986.6 0 87
2019-09-27 04:00:00 13.4 4 Sur 9 Sudeste 0 986.4 -0.2 84
2019-09-27 03:00:00 14.1 4 Sur 8 Este 0 986.6 0.2 80
2019-09-27 02:00:00 15.1 5 Este 7 Este 0 986.6 0.3 75
2019-09-27 01:00:00 16.5 2 Norte 7 Nordeste 0 986.6 0.5 68
2019-09-27 00:00:00 17.8 2 Nordeste 14 Sudoeste 0 986.4 0.7 63
2019-09-26 23:00:00 19.3 8 Sudoeste 11 Sudoeste 0 986.3 0.9 56
2019-09-26 22:00:00 20.9 5 Oeste 10 Noroeste 0 986.1 0.9 49
2019-09-26 21:00:00 23.2 5 Oeste 11 Oeste 0 985.7 0.4 43
2019-09-26 20:00:00 26.6 6 Oeste 18 Oeste 0 985.4 -0.3 33
2019-09-26 19:00:00 29.5 9 Oeste 22 Oeste 0 985.2 -1 25
2019-09-26 18:00:00 30.5 9 Oeste 22 Noroeste 0 985.3 -1.3 23
2019-09-26 17:00:00 30.3 7 Oeste 21 Oeste 0 985.7 -1.4 25
2019-09-26 16:00:00 29.9 4 Sudoeste 17 Noroeste 0 986.2 -1.7 29
2019-09-26 15:00:00 29.5 5 Oeste 14 Sudoeste 0 986.6 -1.7 29
2019-09-26 14:00:00 28 4 Noroeste 15 Sudoeste 0 987.1 -1.5 30
2019-09-26 13:00:00 26 5 Sur 17 Este 0 987.9 -0.3 35
2019-09-26 12:00:00 24 5 Nordeste 13 Sudeste 0 988.3 0.7 43
2019-09-26 11:00:00 21.1 2 Noroeste 7 Sudeste 0 988.6 1.5 57
2019-09-26 10:00:00 18 4 Sudeste 9 Este 0 988.2 1.6 70
2019-09-26 09:00:00 13.7 3 Este 17 Este 0 987.6 1.4 91
2019-09-26 08:00:00 12.4 3 Nordeste 8 Nordeste 0 987.1 1 91
2019-09-26 07:00:00 12.7 2 Sudeste 5 Este 0 986.6 0.5 89
2019-09-26 06:00:00 13.2 4 Este 6 Este 0 986.2 0 89
2019-09-26 05:00:00 13.6 3 Norte 5 Norte 0 986.1 0 88
2019-09-26 04:00:00 14.4 4 Sudeste 9 Sudeste 0 986.1 0 84
2019-09-26 03:00:00 14.6 6 Sudeste 9 Sudeste 0 986.2 0.2 82
2019-09-26 02:00:00 15.7 3 Este 7 Este 0 986.1 0.6 77
2019-09-26 01:00:00 16.4 0 Calma 4 Este 0 986.1 0.8 72
2019-09-26 00:00:00 17.7 0 Calma 9 Sudoeste 0 986 1.1 65
2019-09-25 23:00:00 20 5 Sudoeste 8 Sudoeste 0 985.5 0.8 53
2019-09-25 22:00:00 21.5 6 Sudoeste 15 Sudoeste 0 985.3 0.8 49
2019-09-25 21:00:00 22.6 8 Sur 13 Sur 0 984.9 0.4 45
2019-09-25 20:00:00 25.4 6 Sudoeste 15 Oeste 0 984.7 -0.2 35
2019-09-25 19:00:00 27.6 10 Oeste 19 Oeste 0 984.5 -1.1 29
2019-09-25 18:00:00 27.9 9 Oeste 22 Sudoeste 0 984.5 -1.7 29
2019-09-25 17:00:00 27.3 8 Oeste 19 Sudoeste 0 984.9 -2 34
2019-09-25 16:00:00 26.7 5 Oeste 19 Oeste 0 985.6 -1.9 36
2019-09-25 15:00:00 25.6 4 Oeste 12 Este 0 986.2 -1.5 38
2019-09-25 14:00:00 24.6 3 Oeste 19 Sudeste 0 986.9 -0.7 42
2019-09-25 13:00:00 22.9 4 Nordeste 17 Este 0 987.5 0.7 50
2019-09-25 12:00:00 21 7 Este 23 Nordeste 0 987.7 1.6 56
2019-09-25 11:00:00 18.8 9 Nordeste 15 Nordeste 0 987.6 2 65
2019-09-25 10:00:00 16.2 6 Nordeste 11 Nordeste 0 986.8 1.6 76
2019-09-25 09:00:00 13.9 3 Nordeste 8 Norte 0 986.1 0.9 88
2019-09-25 08:00:00 12.1 2 Noroeste 7 Norte 0 985.6 0.6 86
2019-09-25 07:00:00 13.2 3 Noroeste 7 Oeste 0 985.2 -0.1 84
2019-09-25 06:00:00 14 5 Oeste 9 Noroeste 0 985.2 0 80
2019-09-25 05:00:00 15 4 Noroeste 18 Sudoeste 0 985 -0.5 76
2019-09-25 04:00:00 16.3 6 Oeste 36 Oeste 0 985.3 -0.8 71
2019-09-25 03:00:00 17.6 17 Oeste 43 Sudoeste 0 985.2 -1.3 66
2019-09-25 02:00:00 18.3 22 Sudoeste 39 Oeste 0 985.5 -1 65
2019-09-25 01:00:00 18.7 16 Oeste 28 Oeste 0 986.1 -0.3 65
2019-09-25 00:00:00 19.9 14 Oeste 30 Oeste 0 986.5 0.4 64
2019-09-24 23:00:00 21.3 12 Oeste 32 Oeste 0 986.5 0.7 65
2019-09-24 22:00:00 22.5 17 Oeste 32 Oeste 0 986.4 0.7 67
2019-09-24 21:00:00 23.6 7 Oeste 28 Oeste 0 986.1 0.5 63
2019-09-24 20:00:00 24.4 12 Oeste 33 Oeste 0 985.8 -0.1 59
2019-09-24 19:00:00 25.2 17 Oeste 40 Oeste 0 985.7 -0.5 56
2019-09-24 18:00:00 26.4 15 Oeste 41 Oeste 0 985.6 -1.2 52
2019-09-24 17:00:00 27.6 18 Oeste 45 Oeste 0 985.9 -1.7 48
2019-09-24 16:00:00 27.6 17 Oeste 38 Oeste 0 986.2 -2 42
2019-09-24 15:00:00 26.9 17 Oeste 36 Oeste 0 986.8 -1.8 43
2019-09-24 14:00:00 25.8 17 Oeste 35 Oeste 0 987.6 -1.3 42
2019-09-24 13:00:00 24.1 21 Oeste 40 Sudoeste 0 988.2 -0.3 43
2019-09-24 12:00:00 22.4 18 Oeste 33 Oeste 0 988.6 0.3 49
2019-09-24 11:00:00 20.6 15 Oeste 26 Oeste 0 988.9 1 59
2019-09-24 10:00:00 16.7 2 Noroeste 6 Noroeste 0 988.5 0.9 76
2019-09-24 09:00:00 12.8 2 Nordeste 6 Nordeste 0 988.3 0.7 90
2019-09-24 08:00:00 11.3 5 Nordeste 8 Nordeste 0 987.9 0.2 90
2019-09-24 07:00:00 11.7 3 Sudoeste 8 Oeste 0 987.6 -0.2 89
2019-09-24 06:00:00 12 4 Oeste 8 Noroeste 0 987.6 -0.6 89
2019-09-24 05:00:00 12.3 2 Oeste 6 Oeste 0 987.7 -0.6 86
2019-09-24 04:00:00 13.1 3 Oeste 6 Oeste 0 987.8 -0.5 84
2019-09-24 03:00:00 13.8 4 Oeste 7 Noroeste 0 988.2 -0.3 82
2019-09-24 02:00:00 14.7 3 Noroeste 10 Oeste 0 988.3 -0.2 77
2019-09-24 01:00:00 15.8 6 Oeste 10 Oeste 0 988.3 0 70
2019-09-24 00:00:00 16.2 6 Sudoeste 8 Sudoeste 0 988.5 0.5 67
2019-09-23 23:00:00 17.3 3 Sur 6 Oeste 0 988.5 0.6 63
2019-09-23 22:00:00 19 4 Oeste 11 Oeste 0 988.3 0.7 50
2019-09-23 21:00:00 21.4 4 Noroeste 11 Oeste 0 988 0.5 41
2019-09-23 20:00:00 24.1 6 Oeste 17 Oeste 0 987.9 0.2 32
2019-09-23 19:00:00 26.4 6 Oeste 18 Oeste 0 987.6 -0.4 27
2019-09-23 18:00:00 26.9 8 Oeste 21 Oeste 0 987.5 -1 27
2019-09-23 17:00:00 26.5 10 Oeste 23 Oeste 0 987.7 -1.5 27
2019-09-23 16:00:00 25.7 5 Oeste 19 Noroeste 0 988 -1.5 31
2019-09-23 15:00:00 24.5 8 Oeste 20 Oeste 0 988.5 -1.3 36
2019-09-23 14:00:00 23.8 8 Oeste 18 Oeste 0 989.2 -0.5 39
2019-09-23 13:00:00 22.1 6 Oeste 21 Oeste 0 989.5 -0.1 47
2019-09-23 12:00:00 20.9 5 Oeste 15 Noroeste 0 989.8 0.7 54
2019-09-23 11:00:00 18.8 4 Norte 8 Noroeste 0 989.7 1.1 64
2019-09-23 10:00:00 16.2 3 Nordeste 8 Nordeste 0 989.6 1.6 80
2019-09-23 09:00:00 13.3 3 Norte 9 Nordeste 0 989.1 1.7 93
2019-09-23 08:00:00 11.4 3 Norte 9 Norte 0 988.6 1.5 91
2019-09-23 07:00:00 11.8 3 Oeste 7 Noroeste 0 988 1.1 89
2019-09-23 06:00:00 12.3 3 Sudoeste 5 Noroeste 0 987.4 0.3 87
2019-09-23 05:00:00 13.5 4 Oeste 11 Noroeste 0 987.1 0.5 82
2019-09-23 04:00:00 13.8 3 Noroeste 13 Oeste 0 986.9 0.1 82
2019-09-23 03:00:00 15 6 Oeste 13 Oeste 0 987.1 0.5 78
2019-09-23 02:00:00 15.1 2 Norte 13 Sudoeste 0 986.6 0.2 78
2019-09-23 01:00:00 16.1 8 Sudoeste 18 Sudoeste 0 986.8 0.7 74
2019-09-23 00:00:00 16.8 11 Sudoeste 17 Sudoeste 0 986.6 1.4 72
2019-09-22 23:00:00 17 9 Oeste 15 Sudoeste 0 986.4 1.8 71
2019-09-22 22:00:00 17.7 6 Sudoeste 12 Oeste 0 986.1 1.8 67
2019-09-22 21:00:00 19.4 8 Oeste 18 Oeste 0 985.2 1.4 62
2019-09-22 20:00:00 21.1 9 Oeste 28 Oeste 0 984.6 0.7 54
2019-09-22 19:00:00 22.9 15 Oeste 42 Oeste 0 984.3 0.3 47
2019-09-22 18:00:00 23.6 18 Oeste 38 Oeste 0 983.8 -0.2 44
2019-09-22 17:00:00 23.6 20 Oeste 37 Oeste 0 983.9 -0.3 44
2019-09-22 16:00:00 23.3 19 Oeste 40 Oeste 0 984 -0.2 46
2019-09-22 15:00:00 22.8 20 Oeste 40 Oeste 0 984 0 52
2019-09-22 14:00:00 21.7 18 Oeste 37 Oeste 0 984.2 0.4 58
2019-09-22 13:00:00 20.9 14 Oeste 35 Noroeste 0 984.2 0.7 62
2019-09-22 12:00:00 19.4 14 Oeste 32 Oeste 0 984 1.1 69
2019-09-22 11:00:00 17.9 16 Oeste 32 Oeste 0 983.8 1.6 78
2019-09-22 10:00:00 15.7 14 Oeste 28 Oeste 0 983.5 2.2 85
2019-09-22 09:00:00 14.6 13 Sudoeste 26 Sudoeste 0 982.9 2.2 89
2019-09-22 08:00:00 14.6 13 Oeste 28 Sudoeste 0 982.2 1.7 90
2019-09-22 07:00:00 16 17 Oeste 26 Oeste 0 981.3 0.5 90
2019-09-22 06:00:00 17.5 16 Oeste 31 Oeste 0.2 980.7 -0.2 90
2019-09-22 05:00:00 17.9 7 Oeste 21 Oeste 0.6 980.5 -0.4 92
2019-09-22 04:00:00 17.8 9 Oeste 18 Oeste 1.2 980.8 -0.3 92
2019-09-22 03:00:00 18 6 Sudoeste 14 Sudoeste 3 980.9 0.1 93
2019-09-22 02:00:00 17.9 8 Norte 13 Nordeste 0.4 980.9 0.2 92
2019-09-22 01:00:00 17.9 5 Este 14 Nordeste 0.2 981.1 0.1 92
2019-09-22 00:00:00 17.8 6 Nordeste 16 Este 0 980.8 0.1 92
2019-09-21 23:00:00 17.6 6 Sudeste 15 Este 0 980.7 0 92
2019-09-21 22:00:00 17.4 6 Sudeste 13 Sudeste 0 981 -0.2 92
2019-09-21 21:00:00 17.3 6 Este 13 Sudeste 0.4 980.7 -0.6 92
2019-09-21 20:00:00 17.3 6 Nordeste 14 Nordeste 0.2 980.7 -0.8 92
2019-09-21 19:00:00 17.2 6 Nordeste 21 Nordeste 1.6 981.2 -0.9 92
2019-09-21 18:00:00 17.1 9 Nordeste 16 Nordeste 0.4 981.3 -0.5 92
2019-09-21 17:00:00 17 6 Este 16 Nordeste 1.8 981.5 -0.5 91
2019-09-21 16:00:00 17.4 3 Sudoeste 15 Noroeste 2.8 982.1 -0.2 89
2019-09-21 15:00:00 17.9 10 Norte 18 Nordeste 0.8 981.8 -0.7 87
2019-09-21 14:00:00 19.4 8 Nordeste 14 Nordeste 0.2 982 -0.4 77
2019-09-21 13:00:00 19.1 6 Nordeste 15 Nordeste 0.2 982.3 -0.1 85
2019-09-21 12:00:00 18.9 7 Nordeste 19 Nordeste 0.4 982.5 1 86
2019-09-21 11:00:00 18.4 12 Nordeste 18 Nordeste 0.4 982.4 1.1 84
2019-09-21 10:00:00 17.9 4 Norte 12 Nordeste 0.4 982.4 1.4 87
2019-09-21 09:00:00 18 4 Este 10 Este 0 981.5 0.2 85
2019-09-21 08:00:00 17.5 3 Este 12 Este 0 981.3 0 86
2019-09-21 07:00:00 17.3 6 Este 10 Este 0 981 -0.5 88
2019-09-21 06:00:00 17.8 5 Nordeste 7 Nordeste 0 981.3 -0.7 89
2019-09-21 05:00:00 17.6 5 Nordeste 6 Nordeste 0 981.3 -0.6 86
2019-09-21 04:00:00 17.3 0 Calma 4 Norte 0 981.5 -0.4 85
2019-09-21 03:00:00 17.1 3 Este 5 Este 0 982 0.2 84
2019-09-21 02:00:00 18.2 4 Sudoeste 8 Sudoeste 0 981.9 0.2 81
2019-09-21 01:00:00 18.7 5 Sur 10 Oeste 0 981.9 0.2 80
2019-09-21 00:00:00 19.7 8 Sudoeste 16 Sudoeste 0 981.8 0.7 78
2019-09-20 23:00:00 19.5 10 Sudoeste 14 Sudoeste 0 981.7 0.8 82
2019-09-20 22:00:00 19.1 4 Sudoeste 6 Sudoeste 0 981.7 1.4 88
2019-09-20 21:00:00 19.2 4 Este 10 Este 0 981.1 1.1 84
2019-09-20 20:00:00 19.8 5 Oeste 36 Noroeste 2.2 980.9 0.8 78
2019-09-20 19:00:00 21.9 9 Sur 54 Sur 0.4 980.3 -0.2 63
2019-09-20 18:00:00 28.5 15 Sudoeste 39 Sudoeste 0 980 -1 33
2019-09-20 17:00:00 30.2 16 Sudoeste 32 Sudoeste 0 980.1 -1.8 29
2019-09-20 16:00:00 28.9 10 Sudoeste 21 Sudeste 0 980.5 -2 32
2019-09-20 15:00:00 29.5 6 Sudeste 20 Sur 0 981 -2.1 30
2019-09-20 14:00:00 28.6 8 Sur 24 Sudeste 0 981.9 -1.6 32
2019-09-20 13:00:00 28.3 8 Sudeste 23 Este 0 982.5 -1 35
2019-09-20 12:00:00 26.8 10 Este 24 Este 0 983.1 0 41
2019-09-20 11:00:00 23.8 12 Este 26 Sudeste 0 983.5 0.6 61
2019-09-20 10:00:00 20.6 8 Este 14 Este 0 983.5 1 75
2019-09-20 09:00:00 17.9 5 Sudeste 13 Nordeste 0 983.1 0.8 82
2019-09-20 08:00:00 17.2 6 Este 12 Este 0 982.9 1 81
2019-09-20 07:00:00 17.5 2 Norte 12 Sur 0 982.5 0.5 81
2019-09-20 06:00:00 17.5 6 Sur 14 Sudeste 0 982.3 0.2 81
2019-09-20 05:00:00 18.5 8 Sur 14 Sur 0 981.9 -0.6 77
2019-09-20 04:00:00 18.8 7 Este 12 Este 0 982 -0.5 78
2019-09-20 03:00:00 19.3 4 Norte 8 Sudoeste 0 982.1 -0.3 77
2019-09-20 02:00:00 19.1 5 Sur 9 Oeste 0 982.5 -0.1 77
2019-09-20 01:00:00 19.4 5 Sudoeste 10 Sudeste 0 982.5 0.2 79
2019-09-20 00:00:00 20.8 3 Este 9 Noroeste 0 982.4 0.6 70
2019-09-19 23:00:00 21.9 3 Noroeste 7 Oeste 0 982.6 1.2 64
2019-09-19 22:00:00 23.4 4 Oeste 8 Oeste 0 982.3 0.9 56
2019-09-19 21:00:00 25.7 0 Calma 6 Oeste 0 981.8 0.2 46
2019-09-19 20:00:00 29.2 3 Oeste 12 Oeste 0 981.4 -0.5 39
2019-09-19 19:00:00 31.2 3 Sudoeste 8 Oeste 0 981.4 -0.9 28
2019-09-19 18:00:00 31 4 Oeste 14 Sur 0 981.6 -1.5 28
2019-09-19 17:00:00 32 5 Norte 18 Sudoeste 0 981.9 -2 27
2019-09-19 16:00:00 31.4 6 Nordeste 17 Nordeste 0 982.3 -2.2 28
2019-09-19 15:00:00 31.3 7 Sudeste 19 Sudoeste 0 983.1 -1.9 28
2019-09-19 14:00:00 30 6 Sur 17 Sudeste 0 983.9 -1.3 32
2019-09-19 13:00:00 28.2 4 Oeste 14 Este 0 984.5 -0.5 39
2019-09-19 12:00:00 26.8 5 Sudeste 14 Este 0 985 0.4 47
2019-09-19 11:00:00 24 4 Sudeste 9 Este 0 985.2 1.1 57
2019-09-19 10:00:00 20.8 3 Este 8 Nordeste 0 985 1.2 73
2019-09-19 09:00:00 17.3 3 Este 10 Nordeste 0 984.6 1 86
2019-09-19 08:00:00 16.3 4 Norte 9 Este 0 984.1 0.4 89
2019-09-19 07:00:00 16.8 4 Este 7 Nordeste 0 983.8 -0.1 87
2019-09-19 06:00:00 17.4 3 Este 7 Este 0 983.6 -0.5 85
2019-09-19 05:00:00 17.6 5 Sudeste 7 Sudeste 0 983.7 -0.4 87
2019-09-19 04:00:00 17.2 3 Sudeste 6 Nordeste 0 983.9 -0.1 86
2019-09-19 03:00:00 17.6 4 Oeste 8 Nordeste 0 984.1 0.2 85
2019-09-19 02:00:00 18.5 0 Calma 9 Nordeste 0 984.1 0.3 81
2019-09-19 01:00:00 19.2 5 Norte 8 Norte 0 984 0.5 82
2019-09-19 00:00:00 20 5 Este 9 Este 0 983.9 0.9 76
2019-09-18 23:00:00 21.4 4 Nordeste 8 Nordeste 0 983.8 1.1 68
2019-09-18 22:00:00 23.2 4 Norte 18 Nordeste 0 983.5 0.9 58
2019-09-18 21:00:00 25 4 Sudoeste 10 Sur 0 983 0.4 61
2019-09-18 20:00:00 27.9 0 Calma 9 Oeste 0 982.7 -0.2 37
2019-09-18 19:00:00 30.4 3 Noroeste 11 Noroeste 0 982.6 -0.8 30
2019-09-18 18:00:00 31.1 5 Oeste 15 Noroeste 0 982.6 -1.4 30
2019-09-18 17:00:00 30.6 4 Noroeste 15 Oeste 0 982.9 -1.8 33
2019-09-18 16:00:00 30.1 5 Noroeste 18 Oeste 0 983.4 -1.7 35
2019-09-18 15:00:00 28.5 5 Norte 15 Nordeste 0 984 -1.4 38
2019-09-18 14:00:00 27.1 7 Nordeste 15 Este 0 984.7 -0.9 42
2019-09-18 13:00:00 25.3 6 Este 15 Este 0 985.1 -0.2 49
2019-09-18 12:00:00 23.3 6 Este 18 Este 0 985.4 0.4 58
2019-09-18 11:00:00 21.1 8 Este 15 Este 0 985.6 1 69
2019-09-18 10:00:00 18.3 8 Nordeste 14 Nordeste 0 985.3 1.2 82
2019-09-18 09:00:00 15.8 6 Nordeste 10 Nordeste 0 985 1 92
2019-09-18 08:00:00 15 4 Este 8 Sudeste 0 984.6 0.7 92
2019-09-18 07:00:00 15.2 6 Este 9 Sudeste 0 984.1 0.2 92
2019-09-18 06:00:00 14.9 3 Sur 5 Sudeste 0 984 0.2 91
2019-09-18 05:00:00 15.6 4 Sudeste 10 Nordeste 0 983.9 0.1 90
2019-09-18 04:00:00 15.9 6 Nordeste 12 Nordeste 0 983.9 0.2 90
2019-09-18 03:00:00 16.3 5 Este 13 Este 0 983.8 -0.2 87
2019-09-18 02:00:00 17 9 Este 14 Este 0 983.8 -1.7 84
2019-09-18 01:00:00 16.9 2 Norte 21 Nordeste 0 983.7 -1.1 88
2019-09-18 00:00:00 17.6 14 Nordeste 33 Este 0 984 -0.3 85
2019-09-17 23:00:00 18.1 14 Sudeste 25 Sudeste 0.6 985.5 2.5 81
2019-09-17 22:00:00 17.8 6 Este 35 Oeste 2.2 984.8 2.6 88
2019-09-17 21:00:00 17.9 12 Nordeste 37 Nordeste 10 984.3 2.3 84
2019-09-15 18:00:00 29 4 Norte 14 Noroeste 0 985 -1.5 32
2019-09-15 17:00:00 29 6 Sudeste 14 Sudeste 0 985.2 -1.9 34
2019-09-15 16:00:00 28.6 6 Sudoeste 21 Este 0 985.7 -2.2 38
2019-09-15 15:00:00 27.1 9 Nordeste 20 Este 0 986.5 -1.6 45
2019-09-15 14:00:00 26.1 9 Este 27 Sudeste 0 987.1 -0.9 51
2019-09-15 13:00:00 24.8 13 Este 26 Este 0 987.9 -0.1 55
2019-09-15 12:00:00 23.4 13 Este 26 Sudeste 0 988.1 0.5 63
2019-09-15 11:00:00 21.6 8 Este 16 Nordeste 0 988 0.7 75
2019-09-15 10:00:00 20 5 Este 11 Este 0 988 0.6 84
2019-09-15 09:00:00 18 5 Nordeste 9 Nordeste 0.2 987.6 0.3 92
2019-09-15 08:00:00 17.3 4 Este 13 Este 0 987.3 0 92
2019-09-15 07:00:00 17.4 6 Este 12 Nordeste 0 987.4 -0.7 91
2019-09-15 06:00:00 18.1 4 Nordeste 7 Nordeste 0 987.3 -0.8 91
2019-09-15 05:00:00 17.8 3 Sudeste 11 Sudeste 0 987.3 -1.7 90
2019-09-15 04:00:00 17.6 5 Sudeste 21 Norte 0 988.1 -0.6 90
2019-09-15 03:00:00 17.6 16 Nordeste 27 Nordeste 3 988.1 -1 91
2019-09-15 02:00:00 18.4 8 Este 17 Este 5 989 -0.3 83
2019-09-15 01:00:00 19.3 4 Este 11 Sudeste 0 988.7 -0.2 73
2019-09-15 00:00:00 19.5 3 Este 23 Este 0 989.1 0.4 70